Time;durP1;ratioP1;P1;durP2;ratioP2;P2;SDS_P1;SDS_P2;PMS_P1;PMS_P2;Temp;Humidity;BMP_temperature;BMP_pressure;BME280_temperature;BME280_humidity;BME280_pressure;Samples;Min_cycle;Max_cycle;Signal;HPM_P1;HPM_P2
2022/06/24 00:00:30;;;;;;;5.60;1.90;;;;;;;21.53;97.30;97674.03;4151003;28;20642;-92
2022/06/24 00:02:34;;;;;;;3.90;1.90;;;;;;;21.53;96.88;97669.56;4134941;28;20638;-91
2022/06/24 00:04:37;;;;;;;5.93;1.87;;;;;;;21.54;98.64;97676.50;4142043;28;20651;-92
2022/06/24 00:06:47;;;;;;;4.43;1.80;;;;;;;21.55;97.92;97683.47;4125536;28;20657;-90
2022/06/24 00:08:52;;;;;;;4.63;1.63;;;;;;;21.57;98.43;97676.13;4138210;28;20629;-92
2022/06/24 00:10:55;;;;;;;8.30;2.43;;;;;;;21.58;98.26;97679.63;4125427;28;20640;-92
2022/06/24 00:13:00;;;;;;;4.33;1.60;;;;;;;21.58;97.79;97675.16;4140158;28;21058;-91
2022/06/24 00:15:04;;;;;;;4.17;2.00;;;;;;;21.58;97.36;97688.41;4136775;28;20632;-91
2022/06/24 00:17:08;;;;;;;6.00;1.70;;;;;;;21.57;96.72;97675.31;4136994;28;20652;-91
2022/06/24 00:19:11;;;;;;;9.80;1.83;;;;;;;21.60;97.18;97689.06;4135737;28;20668;-91
2022/06/24 00:21:15;;;;;;;6.37;2.17;;;;;;;21.60;95.97;97683.75;4125295;28;21211;-91
2022/06/24 00:23:19;;;;;;;4.00;1.63;;;;;;;21.61;95.97;97680.09;4127686;28;20633;-90
2022/06/24 00:25:23;;;;;;;7.60;1.60;;;;;;;21.61;96.03;97682.75;4137373;28;21304;-91
2022/06/24 00:27:27;;;;;;;5.17;2.17;;;;;;;21.59;95.64;97679.47;4137665;28;20639;-90
2022/06/24 00:29:33;;;;;;;3.40;1.70;;;;;;;21.56;95.37;97682.47;4128703;28;21208;-91
2022/06/24 00:31:36;;;;;;;6.10;2.17;;;;;;;21.53;96.35;97676.69;4125448;28;20636;-91
2022/06/24 00:33:45;;;;;;;4.40;1.70;;;;;;;21.51;95.77;97668.09;4141634;28;20641;-91
2022/06/24 00:35:50;;;;;;;6.17;1.70;;;;;;;21.49;95.64;97668.28;4143868;28;20636;-91
2022/06/24 00:37:53;;;;;;;3.40;1.80;;;;;;;21.43;96.27;97658.34;4136805;28;20727;-92
2022/06/24 00:39:59;;;;;;;4.80;2.00;;;;;;;21.44;97.23;97654.69;4120533;28;21242;-91
2022/06/24 00:42:02;;;;;;;5.00;1.77;;;;;;;21.43;96.55;97642.44;4127995;28;21063;-92
2022/06/24 00:44:09;;;;;;;2.97;1.60;;;;;;;21.46;96.21;97646.59;4128430;28;20743;-91
2022/06/24 00:46:17;;;;;;;3.10;1.47;;;;;;;21.47;97.13;97634.94;4133484;28;20647;-92
2022/06/24 00:48:21;;;;;;;5.23;1.87;;;;;;;21.48;96.69;97628.63;4131242;28;20666;-92
2022/06/24 00:50:25;;;;;;;4.07;1.97;;;;;;;21.43;96.72;97629.16;4140492;28;20784;-93
2022/06/24 00:52:28;;;;;;;4.43;1.93;;;;;;;21.42;97.58;97618.72;4124419;28;20643;-92
2022/06/24 00:54:32;;;;;;;4.90;1.80;;;;;;;21.44;97.24;97620.19;4128897;28;20632;-92
2022/06/24 00:56:35;;;;;;;3.53;1.80;;;;;;;21.44;97.33;97619.34;4135920;28;20625;-92
2022/06/24 00:58:51;;;;;;;4.23;1.80;;;;;;;21.44;97.25;97616.69;4139049;28;20644;-92
2022/06/24 01:00:54;;;;;;;5.93;2.30;;;;;;;21.44;97.93;97614.03;4136341;28;20671;-92
2022/06/24 01:03:00;;;;;;;4.23;2.00;;;;;;;21.44;97.83;97614.03;4142792;28;20737;-90
2022/06/24 01:05:08;;;;;;;6.30;1.60;;;;;;;21.44;98.02;97611.38;4139238;28;20642;-92
2022/06/24 01:07:11;;;;;;;3.63;1.60;;;;;;;21.44;98.32;97601.63;4120809;28;20643;-92
2022/06/24 01:09:16;;;;;;;2.90;1.63;;;;;;;21.44;98.39;97606.91;4122501;28;21316;-92
2022/06/24 01:11:24;;;;;;;4.93;2.17;;;;;;;21.44;98.46;97601.63;4123977;28;21117;-90
2022/06/24 01:13:27;;;;;;;8.00;1.90;;;;;;;21.45;98.32;97597.97;4140184;28;20656;-91
2022/06/24 01:15:31;;;;;;;3.33;1.70;;;;;;;21.43;97.99;97597.31;4123238;28;21216;-91
2022/06/24 01:17:34;;;;;;;4.20;2.00;;;;;;;21.44;98.50;97593.66;4120768;28;20638;-91
2022/06/24 01:19:39;;;;;;;2.97;1.87;;;;;;;21.40;98.60;97595.00;4124469;28;21019;-91
2022/06/24 01:21:44;;;;;;;4.03;1.90;;;;;;;21.38;98.08;97597.03;4142632;28;20655;-91
2022/06/24 01:23:47;;;;;;;4.97;1.93;;;;;;;21.37;98.14;97606.00;4136027;28;20635;-91
2022/06/24 01:25:51;;;;;;;2.47;1.70;;;;;;;21.37;98.35;97599.88;4127498;28;20638;-91
2022/06/24 01:27:54;;;;;;;3.13;1.93;;;;;;;21.33;98.02;97599.44;4125497;28;20672;-91
2022/06/24 01:29:57;;;;;;;5.47;2.07;;;;;;;21.32;97.93;97602.25;4125848;28;20687;-91
2022/06/24 01:32:00;;;;;;;6.73;2.10;;;;;;;21.30;99.28;97594.47;4127826;28;21004;-92
2022/06/24 01:34:04;;;;;;;8.83;2.00;;;;;;;21.29;98.67;97590.16;4143260;28;20628;-91
2022/06/24 01:36:08;;;;;;;3.73;2.00;;;;;;;21.29;98.78;97592.00;4141940;28;20659;-91
2022/06/24 01:38:12;;;;;;;3.57;1.50;;;;;;;21.30;99.03;97588.31;4128651;28;20683;-92
2022/06/24 01:40:15;;;;;;;5.03;1.80;;;;;;;21.28;99.12;97585.84;4124900;28;20628;-91
2022/06/24 01:42:19;;;;;;;5.90;2.13;;;;;;;21.26;98.44;97587.06;4142112;28;20662;-91
2022/06/24 01:44:22;;;;;;;9.60;2.13;;;;;;;21.26;98.87;97581.75;4124218;28;20653;-92
2022/06/24 01:46:26;;;;;;;4.43;1.93;;;;;;;21.25;98.34;97566.03;4137578;28;20643;-91
2022/06/24 01:48:30;;;;;;;5.70;1.63;;;;;;;21.23;97.14;97565.38;4123817;28;20652;-92
2022/06/24 01:50:33;;;;;;;4.13;1.50;;;;;;;21.22;97.81;97564.56;4124544;28;20667;-91
2022/06/24 01:52:37;;;;;;;3.40;1.70;;;;;;;21.19;97.63;97564.91;4117089;28;21218;-92
2022/06/24 01:54:41;;;;;;;4.83;2.03;;;;;;;21.16;97.99;97559.16;4128848;28;20694;-91
2022/06/24 01:56:45;;;;;;;7.57;2.00;;;;;;;21.18;98.96;97565.09;4127338;28;20640;-92
2022/06/24 01:58:48;;;;;;;6.17;1.73;;;;;;;21.18;98.59;97568.56;4117575;28;21197;-92
2022/06/24 02:00:54;;;;;;;4.30;1.80;;;;;;;21.18;99.32;97575.72;4120749;28;20735;-91
2022/06/24 02:02:58;;;;;;;5.47;2.03;;;;;;;21.17;99.12;97576.69;4124321;28;20660;-91
2022/06/24 02:05:01;;;;;;;5.10;1.60;;;;;;;21.18;98.36;97578.38;4125913;28;20644;-90
2022/06/24 02:07:04;;;;;;;4.13;1.83;;;;;;;21.16;98.75;97578.53;4132897;28;20635;-91
2022/06/24 02:09:08;;;;;;;5.33;2.20;;;;;;;21.16;98.19;97575.06;4124238;28;20645;-91
2022/06/24 02:13:33;;;;;;;6.13;1.90;;;;;;;21.15;97.68;97586.69;4120889;28;20730;-90
2022/06/24 02:15:36;;;;;;;4.67;1.80;;;;;;;21.13;98.83;97586.06;4151521;28;20637;-91
2022/06/24 02:17:39;;;;;;;6.43;2.33;;;;;;;21.12;98.14;97587.88;4124432;28;20633;-91
2022/06/24 02:19:42;;;;;;;5.00;1.83;;;;;;;21.13;97.56;97586.06;4124714;28;20635;-91
2022/06/24 02:21:45;;;;;;;6.57;1.80;;;;;;;21.11;98.70;97580.94;4123944;28;21028;-91
2022/06/24 02:23:49;;;;;;;4.07;2.10;;;;;;;21.11;97.99;97593.34;4126420;28;21128;-91
2022/06/24 02:25:53;;;;;;;4.90;2.07;;;;;;;21.10;98.04;97589.06;4125177;28;20651;-91
2022/06/24 02:27:57;;;;;;;3.80;1.90;;;;;;;21.11;97.05;97590.69;4136568;28;20696;-91
2022/06/24 02:30:00;;;;;;;3.70;2.00;;;;;;;21.09;98.64;97593.53;4133928;28;20679;-91
2022/06/24 02:32:05;;;;;;;3.40;2.00;;;;;;;21.07;97.49;97579.63;4123695;28;20650;-91
2022/06/24 02:34:09;;;;;;;5.30;2.03;;;;;;;21.09;97.91;97582.09;4127588;28;20627;-91
2022/06/24 02:36:12;;;;;;;5.87;2.70;;;;;;;21.05;96.97;97583.47;4138692;28;20659;-91
2022/06/24 02:38:15;;;;;;;5.80;3.60;;;;;;;20.99;96.59;97579.72;4136906;28;20676;-92
2022/06/24 02:42:39;;;;;;;4.30;2.77;;;;;;;20.92;97.43;97575.31;4124986;28;20653;-91
2022/06/24 02:44:43;;;;;;;5.80;3.33;;;;;;;20.91;96.64;97571.00;4137406;28;20643;-90
2022/06/24 02:46:46;;;;;;;5.33;3.23;;;;;;;20.90;97.75;97578.16;4151863;28;20645;-91
2022/06/24 02:48:50;;;;;;;4.40;2.50;;;;;;;20.88;97.20;97566.91;4136588;28;20699;-91
2022/06/24 02:50:55;;;;;;;11.43;2.97;;;;;;;20.87;97.84;97564.44;4140374;28;20670;-91
2022/06/24 02:52:58;;;;;;;5.20;2.33;;;;;;;20.86;98.22;97563.59;4141882;28;21036;-91
2022/06/24 02:55:01;;;;;;;6.90;2.87;;;;;;;20.85;97.38;97569.09;4135637;28;20628;-90
2022/06/24 02:57:05;;;;;;;4.90;2.60;;;;;;;20.83;97.05;97563.97;4125418;28;20631;-92
2022/06/24 02:59:08;;;;;;;5.20;2.80;;;;;;;20.83;97.55;97560.50;4138963;28;20629;-91
2022/06/24 03:01:12;;;;;;;6.27;2.90;;;;;;;20.79;97.53;97548.59;4124153;28;20630;-90
2022/06/24 03:03:18;;;;;;;6.47;2.87;;;;;;;20.76;97.05;97558.75;4128028;28;20664;-91
2022/06/24 03:05:21;;;;;;;5.77;3.00;;;;;;;20.72;96.55;97560.09;4124062;28;20816;-91
2022/06/24 03:07:24;;;;;;;6.40;2.60;;;;;;;20.68;97.78;97564.94;4119253;28;20653;-91
2022/06/24 03:09:27;;;;;;;5.97;2.40;;;;;;;20.65;96.37;97554.66;4138818;28;20650;-91
2022/06/24 03:11:30;;;;;;;6.43;2.70;;;;;;;20.65;97.79;97554.66;4124586;28;21081;-91
2022/06/24 03:13:33;;;;;;;6.33;2.80;;;;;;;20.64;98.16;97552.19;4151688;28;20764;-91
2022/06/24 03:15:37;;;;;;;7.60;3.00;;;;;;;20.63;96.78;97554.03;4120367;28;20717;-91
2022/06/24 03:17:43;;;;;;;5.20;4.10;;;;;;;20.61;96.65;97556.03;4138116;28;21381;-91
2022/06/24 03:19:46;;;;;;;5.97;2.87;;;;;;;20.62;96.53;97555.03;4140444;28;20670;-91
2022/06/24 03:21:49;;;;;;;6.37;2.77;;;;;;;20.62;97.08;97559.50;4130346;28;20643;-91
2022/06/24 03:23:52;;;;;;;10.63;2.93;;;;;;;20.59;97.77;97560.69;4142706;28;20688;-91
2022/06/24 03:25:55;;;;;;;5.70;2.40;;;;;;;20.58;98.19;97558.22;4154549;28;21009;-91
2022/06/24 03:27:58;;;;;;;3.70;2.50;;;;;;;20.57;97.11;97559.25;4121233;28;20642;-91
2022/06/24 03:30:02;;;;;;;5.40;2.67;;;;;;;20.56;98.08;97558.38;4151417;28;21740;-90
2022/06/24 03:32:05;;;;;;;9.00;2.80;;;;;;;20.55;97.75;97562.06;4127365;28;20631;-91
2022/06/24 03:34:10;;;;;;;5.00;3.57;;;;;;;20.53;97.58;97564.03;4138505;28;21071;-90
2022/06/24 03:36:13;;;;;;;8.10;2.90;;;;;;;20.54;97.00;97564.91;4123744;28;21117;-91
2022/06/24 03:38:16;;;;;;;4.80;2.30;;;;;;;20.53;97.76;97566.69;4141847;28;21273;-91
2022/06/24 03:40:19;;;;;;;5.83;3.30;;;;;;;20.53;97.81;97560.59;4127253;28;20642;-91
2022/06/24 03:42:22;;;;;;;4.50;2.50;;;;;;;20.51;97.21;97568.72;4124615;28;20645;-91
2022/06/24 03:44:26;;;;;;;5.37;2.73;;;;;;;20.51;97.54;97566.06;4125579;28;20674;-91
2022/06/24 03:46:29;;;;;;;6.00;2.87;;;;;;;20.52;97.60;97562.41;4123751;28;21936;-91
2022/06/24 03:48:32;;;;;;;4.00;2.60;;;;;;;20.53;97.90;97568.53;4138880;28;20634;-91
2022/06/24 03:50:37;;;;;;;6.73;2.57;;;;;;;20.50;97.16;97566.25;4145040;28;20993;-91
2022/06/24 03:52:47;;;;;;;6.20;2.60;;;;;;;20.44;98.11;97564.31;4123570;28;20693;-90
2022/06/24 03:55:14;;;;;;;6.87;3.10;;;;;;;20.41;97.31;97562.81;4127997;28;20692;-90
2022/06/24 03:57:17;;;;;;;5.60;2.77;;;;;;;20.37;98.61;97555.41;4124662;28;21541;-90
2022/06/24 03:59:20;;;;;;;5.60;3.17;;;;;;;20.38;96.92;97563.19;4124099;28;21021;-91
2022/06/24 04:01:23;;;;;;;6.33;2.70;;;;;;;20.38;97.69;97557.88;4123301;28;20676;-91
2022/06/24 04:03:26;;;;;;;4.47;2.40;;;;;;;20.38;97.47;97557.06;4152050;28;20661;-90
2022/06/24 04:05:29;;;;;;;5.87;3.03;;;;;;;20.41;98.35;97559.34;4120482;28;20721;-91
2022/06/24 04:07:34;;;;;;;6.30;2.80;;;;;;;20.42;98.12;97564.47;4114370;28;21255;-91
2022/06/24 04:09:37;;;;;;;7.30;3.87;;;;;;;20.43;98.01;97563.50;4139357;28;20642;-91
2022/06/24 04:11:40;;;;;;;6.10;2.57;;;;;;;20.43;98.78;97554.69;4121923;28;20687;-90
2022/06/24 04:13:44;;;;;;;4.93;2.80;;;;;;;20.43;97.53;97565.28;4125489;28;20628;-90
2022/06/24 04:15:49;;;;;;;4.47;2.97;;;;;;;20.42;97.49;97563.66;4134996;28;21264;-90
2022/06/24 04:17:52;;;;;;;6.67;2.63;;;;;;;20.43;97.17;97567.94;4140230;28;20623;-91
2022/06/24 04:19:56;;;;;;;5.60;3.37;;;;;;;20.42;98.57;97561.81;4127898;28;20635;-90
2022/06/24 04:21:59;;;;;;;6.33;2.67;;;;;;;20.43;97.39;97560.00;4142022;28;20642;-91
2022/06/24 04:24:04;;;;;;;5.93;2.57;;;;;;;20.42;97.47;97559.19;4120730;28;20663;-91
2022/06/24 04:26:07;;;;;;;6.63;2.73;;;;;;;20.45;97.45;97568.59;4136420;28;20718;-91
2022/06/24 04:28:11;;;;;;;6.47;3.40;;;;;;;20.44;98.17;97562.47;4126192;28;21011;-90
2022/06/24 04:30:14;;;;;;;9.60;2.80;;;;;;;20.41;97.55;97560.16;4124314;28;20643;-91
2022/06/24 04:32:17;;;;;;;7.10;3.13;;;;;;;20.41;96.59;97559.34;4121070;28;22788;-91
2022/06/24 04:34:20;;;;;;;8.23;4.00;;;;;;;20.42;97.98;97553.06;4140568;28;20673;-91
2022/06/24 04:36:23;;;;;;;6.13;3.53;;;;;;;20.43;97.37;97557.34;4126914;28;20632;-90
2022/06/24 04:38:27;;;;;;;7.30;3.77;;;;;;;20.42;96.95;97555.72;4125690;28;20689;-91
2022/06/24 04:40:31;;;;;;;5.33;3.67;;;;;;;20.43;96.87;97566.13;4123506;28;20695;-91
2022/06/24 04:42:34;;;;;;;9.27;4.30;;;;;;;20.44;96.83;97567.75;4125904;28;20651;-91
2022/06/24 04:44:38;;;;;;;7.87;3.40;;;;;;;20.41;96.74;97554.06;4126996;28;20716;-90
2022/06/24 04:46:47;;;;;;;6.97;3.33;;;;;;;20.37;96.61;97556.25;4127061;28;20829;-90
2022/06/24 04:48:50;;;;;;;7.80;3.40;;;;;;;20.35;96.95;97546.81;4125304;28;20643;-91
2022/06/24 04:50:53;;;;;;;11.60;4.87;;;;;;;20.34;96.61;97553.09;4136979;28;20645;-90
2022/06/24 04:52:57;;;;;;;10.33;5.17;;;;;;;20.33;97.81;97552.28;4132577;28;20673;-89
2022/06/24 04:55:00;;;;;;;10.10;4.63;;;;;;;20.36;96.89;97559.88;4136714;28;20632;-92
2022/06/24 04:57:06;;;;;;;6.47;4.20;;;;;;;20.37;96.66;97552.75;4138906;28;20641;-92
2022/06/24 04:59:09;;;;;;;8.03;5.00;;;;;;;20.39;96.87;97554.25;4128752;28;20657;-90
2022/06/24 05:01:12;;;;;;;8.93;3.90;;;;;;;20.41;97.38;97556.72;4118051;28;20627;-90
2022/06/24 05:03:16;;;;;;;8.60;4.30;;;;;;;20.44;97.06;97557.16;4141754;28;20721;-90
2022/06/24 05:05:19;;;;;;;5.27;3.53;;;;;;;20.50;97.66;97560.94;4123988;28;20725;-90
2022/06/24 05:07:22;;;;;;;5.50;3.10;;;;;;;20.55;97.55;97556.75;4123035;28;21992;-90
2022/06/24 05:09:25;;;;;;;8.27;3.80;;;;;;;20.63;97.62;97561.97;4121071;28;20640;-90
2022/06/24 05:11:28;;;;;;;9.27;4.00;;;;;;;20.71;98.19;97559.28;4140666;28;20646;-91
2022/06/24 05:14:09;;;;;;;8.00;3.30;;;;;;;20.82;98.65;97556.19;4125478;28;20631;-91
2022/06/24 05:16:12;;;;;;;5.53;3.20;;;;;;;20.91;98.36;97560.41;4123427;28;20743;-89
2022/06/24 05:18:35;;;;;;;8.37;3.60;;;;;;;20.98;98.34;97556.03;4125634;28;21012;-89
2022/06/24 05:20:39;;;;;;;6.60;3.63;;;;;;;21.07;97.89;97555.75;4120922;28;20635;-88
2022/06/24 05:22:42;;;;;;;30.13;25.73;;;;;;;21.15;97.90;97552.19;4119009;28;20829;-88
2022/06/24 05:24:45;;;;;;;17.40;15.37;;;;;;;21.23;97.76;97549.44;4117431;28;20690;-88
2022/06/24 05:26:49;;;;;;;6.70;3.13;;;;;;;21.32;96.43;97552.66;4129440;28;20659;-89
2022/06/24 05:28:55;;;;;;;8.90;3.73;;;;;;;21.38;96.54;97545.81;4140871;28;20708;-89
2022/06/24 05:30:59;;;;;;;4.50;2.80;;;;;;;21.45;95.22;97536.06;4143576;28;22220;-88
2022/06/24 05:33:02;;;;;;;4.47;2.80;;;;;;;21.58;95.23;97534.44;4140836;28;21260;-88
2022/06/24 05:35:06;;;;;;;8.30;3.20;;;;;;;21.70;93.51;97527.63;4137252;28;20639;-89
2022/06/24 05:37:09;;;;;;;8.07;3.93;;;;;;;21.87;93.43;97543.16;4140214;28;20639;-88
2022/06/24 05:39:12;;;;;;;6.30;2.90;;;;;;;22.11;91.84;97541.97;4141762;28;20634;-88
2022/06/24 05:41:16;;;;;;;5.90;2.87;;;;;;;22.41;92.54;97544.34;4139577;28;20647;-89
2022/06/24 05:43:19;;;;;;;4.73;3.30;;;;;;;22.69;89.15;97543.38;4136005;28;20699;-90
2022/06/24 05:45:22;;;;;;;9.63;2.87;;;;;;;23.00;88.88;97546.47;4118104;28;20648;-89
2022/06/24 05:47:27;;;;;;;6.30;3.50;;;;;;;23.32;88.22;97557.34;4126979;28;21219;-89
2022/06/24 05:49:30;;;;;;;6.93;2.63;;;;;;;23.60;87.50;97555.44;4137629;28;20654;-90
2022/06/24 05:51:35;;;;;;;8.70;3.10;;;;;;;23.91;88.02;97561.94;4116244;28;20995;-89
2022/06/24 05:56:00;;;;;;;7.40;3.10;;;;;;;24.44;84.83;97543.22;4112850;28;21023;-91
2022/06/24 05:58:03;;;;;;;6.40;2.77;;;;;;;24.71;83.49;97548.38;4115737;28;21165;-91
2022/06/24 06:00:08;;;;;;;7.60;2.90;;;;;;;24.96;82.58;97552.88;4124871;28;20650;-91
2022/06/24 06:02:32;;;;;;;7.73;2.93;;;;;;;25.22;82.67;97548.34;4128729;28;20692;-90
2022/06/24 06:04:36;;;;;;;6.10;2.87;;;;;;;25.43;82.07;97550.75;4142461;28;20662;-92
2022/06/24 06:06:40;;;;;;;5.90;3.30;;;;;;;25.61;79.66;97543.69;4138234;28;20667;-91
2022/06/24 06:08:43;;;;;;;6.00;2.83;;;;;;;25.77;79.80;97543.28;4123852;28;20670;-92
2022/06/24 06:10:46;;;;;;;6.87;3.00;;;;;;;26.00;80.81;97542.75;4127951;28;20765;-91
2022/06/24 06:12:50;;;;;;;6.53;3.17;;;;;;;26.19;80.08;97548.81;4129368;28;20652;-91
2022/06/24 06:14:53;;;;;;;8.20;3.10;;;;;;;26.33;79.14;97545.06;4125531;28;21207;-91
2022/06/24 06:16:56;;;;;;;7.80;3.37;;;;;;;26.52;79.30;97537.91;4150062;28;21476;-91
2022/06/24 06:19:01;;;;;;;7.77;3.50;;;;;;;26.64;78.19;97542.34;4136258;28;21017;-91
2022/06/24 06:21:06;;;;;;;7.93;3.83;;;;;;;26.82;76.67;97545.09;4127350;28;20668;-92
2022/06/24 06:23:09;;;;;;;5.67;2.90;;;;;;;26.93;74.74;97547.06;4137884;28;20675;-93
2022/06/24 06:25:14;;;;;;;8.57;3.20;;;;;;;27.04;74.00;97539.97;4127237;28;21046;-88
2022/06/24 06:27:19;;;;;;;6.90;3.50;;;;;;;27.25;74.20;97558.31;4134855;28;20645;-90
2022/06/24 06:29:22;;;;;;;7.50;3.73;;;;;;;27.40;74.24;97556.09;4121983;28;21075;-90
2022/06/24 06:31:25;;;;;;;5.90;3.00;;;;;;;27.50;73.76;97551.09;4121418;28;20625;-89
2022/06/24 06:33:31;;;;;;;5.53;3.53;;;;;;;27.68;77.65;97559.09;4120642;28;20630;-90
2022/06/24 06:35:36;;;;;;;7.67;3.20;;;;;;;27.91;76.48;97556.56;4149180;28;21017;-90
2022/06/24 06:37:57;;;;;;;9.07;3.70;;;;;;;28.15;75.44;97562.66;4144057;28;20643;-91
2022/06/24 06:40:01;;;;;;;5.93;3.13;;;;;;;28.30;72.59;97564.94;4124918;28;20639;-90
2022/06/24 06:42:05;;;;;;;8.20;3.23;;;;;;;28.48;74.09;97562.19;4118546;28;20650;-90
2022/06/24 06:44:19;;;;;;;9.70;3.50;;;;;;;28.65;73.65;97556.75;4122496;28;20634;-90
2022/06/24 06:46:22;;;;;;;6.37;2.83;;;;;;;28.80;71.21;97561.75;4126398;28;21007;-90
2022/06/24 06:48:26;;;;;;;6.77;3.10;;;;;;;28.95;72.26;97565.59;4127535;28;20641;-91
2022/06/24 06:50:29;;;;;;;5.90;3.07;;;;;;;29.10;72.19;97569.47;4142002;28;20630;-90
2022/06/24 06:52:34;;;;;;;5.83;2.90;;;;;;;29.24;71.65;97562.84;4122877;28;20742;-90
2022/06/24 06:54:37;;;;;;;7.33;2.97;;;;;;;29.38;70.44;97563.41;4131365;28;20650;-91
2022/06/24 06:56:41;;;;;;;5.50;3.07;;;;;;;29.44;71.34;97567.88;4135013;28;20698;-91
2022/06/24 06:58:44;;;;;;;5.90;3.20;;;;;;;29.59;69.86;97564.47;4124582;28;20646;-90
2022/06/24 07:00:47;;;;;;;5.83;3.33;;;;;;;29.66;68.82;97556.25;4137366;28;21016;-90
2022/06/24 07:02:51;;;;;;;14.00;3.03;;;;;;;29.74;70.89;97559.41;4141883;28;20638;-90
2022/06/24 07:04:54;;;;;;;8.43;6.30;;;;;;;29.94;69.55;97556.38;4126698;28;20706;-90
2022/06/24 07:06:57;;;;;;;9.87;3.33;;;;;;;30.00;68.73;97551.66;4140959;28;20635;-90
2022/06/24 07:09:02;;;;;;;8.60;3.30;;;;;;;30.03;67.25;97550.34;4122049;28;20647;-91
2022/06/24 07:11:05;;;;;;;8.63;3.17;;;;;;;30.15;65.63;97543.88;4129513;28;20682;-90
2022/06/24 07:13:09;;;;;;;5.77;3.60;;;;;;;30.42;70.17;97554.91;4138822;28;20720;-90
2022/06/24 07:15:14;;;;;;;6.23;3.50;;;;;;;30.53;67.20;97541.38;4141774;28;20627;-91
2022/06/24 07:17:17;;;;;;;6.50;3.60;;;;;;;30.61;67.12;97547.19;4127836;28;20641;-90
2022/06/24 07:19:21;;;;;;;8.73;3.30;;;;;;;30.70;66.13;97542.22;4126517;28;21242;-91
2022/06/24 07:21:24;;;;;;;7.70;3.20;;;;;;;30.69;65.36;97538.72;4126190;28;20673;-91
2022/06/24 07:23:27;;;;;;;7.30;3.47;;;;;;;30.27;65.98;97531.19;4144997;28;20731;-91
2022/06/24 07:25:32;;;;;;;7.13;3.23;;;;;;;29.87;66.57;97531.47;4137031;28;20666;-91
2022/06/24 07:27:36;;;;;;;6.87;3.40;;;;;;;29.64;69.23;97539.56;4139223;28;20628;-90
2022/06/24 07:29:39;;;;;;;7.57;3.40;;;;;;;29.77;66.24;97529.34;4133316;28;20643;-90
2022/06/24 07:31:47;;;;;;;6.00;3.20;;;;;;;29.64;67.16;97534.19;4131897;28;20665;-91
2022/06/24 07:33:53;;;;;;;10.20;3.53;;;;;;;29.18;68.77;97528.00;4128696;28;21049;-91
2022/06/24 07:35:57;;;;;;;8.93;3.70;;;;;;;28.78;67.47;97526.25;4119312;28;20632;-91
2022/06/24 07:38:00;;;;;;;9.60;3.67;;;;;;;28.41;69.03;97515.84;4132060;28;20659;-91
2022/06/24 07:40:03;;;;;;;8.87;3.17;;;;;;;28.26;69.60;97518.94;4134885;28;20637;-91
2022/06/24 07:42:08;;;;;;;6.63;3.33;;;;;;;28.28;69.58;97519.56;4130645;28;21065;-91
2022/06/24 07:44:11;;;;;;;10.03;4.47;;;;;;;28.59;71.98;97525.44;4129704;28;20635;-91
2022/06/24 07:46:14;;;;;;;6.03;3.80;;;;;;;28.94;69.96;97526.34;4145861;28;20644;-91
2022/06/24 07:48:17;;;;;;;8.10;3.60;;;;;;;28.66;68.55;97518.16;4136264;28;20692;-92
2022/06/24 07:50:21;;;;;;;6.33;3.13;;;;;;;28.36;67.86;97513.03;4125069;28;20901;-91
2022/06/24 07:52:25;;;;;;;6.00;3.30;;;;;;;28.64;69.97;97517.53;4118864;28;20700;-89
2022/06/24 07:54:28;;;;;;;10.70;3.67;;;;;;;28.80;66.77;97516.06;4138095;28;20644;-90
2022/06/24 07:58:53;;;;;;;5.60;3.33;;;;;;;29.02;67.46;97510.69;4137484;28;21027;-93
2022/06/24 08:00:56;;;;;;;4.93;3.23;;;;;;;29.19;67.92;97514.31;4130529;28;20757;-92
2022/06/24 08:02:59;;;;;;;8.20;3.60;;;;;;;29.03;68.73;97504.28;4139436;28;20685;-91
2022/06/24 08:05:03;;;;;;;5.17;3.10;;;;;;;28.68;67.75;97499.13;4143492;28;20638;-91
2022/06/24 08:07:06;;;;;;;7.97;3.73;;;;;;;28.32;69.02;97501.94;4141410;28;20731;-90
2022/06/24 08:09:10;;;;;;;6.63;3.87;;;;;;;28.29;69.99;97497.00;4121187;28;21317;-91
2022/06/24 08:11:13;;;;;;;8.00;3.70;;;;;;;28.13;69.50;97483.44;4144187;28;20648;-90
2022/06/24 08:13:16;;;;;;;7.83;3.90;;;;;;;27.98;70.16;97487.53;4132823;28;20643;-91
2022/06/24 08:15:21;;;;;;;8.73;3.97;;;;;;;27.97;71.02;97489.41;4129316;28;20750;-91
2022/06/24 08:17:24;;;;;;;5.43;3.63;;;;;;;27.85;69.25;97487.75;4136755;28;20647;-90
2022/06/24 08:19:27;;;;;;;6.83;3.50;;;;;;;27.65;70.03;97489.88;4124896;28;20628;-90
2022/06/24 08:21:30;;;;;;;7.27;4.37;;;;;;;27.49;72.29;97487.75;4134113;28;20627;-90
2022/06/24 08:23:33;;;;;;;6.73;3.67;;;;;;;27.34;71.65;97481.94;4121884;28;20739;-90
2022/06/24 08:25:36;;;;;;;8.40;3.70;;;;;;;27.25;71.03;97483.28;4139199;28;20653;-91
2022/06/24 08:27:40;;;;;;;6.17;3.87;;;;;;;27.22;72.42;97477.56;4138026;28;20684;-91
2022/06/24 08:29:43;;;;;;;6.93;3.30;;;;;;;27.28;73.59;97474.81;4137962;28;21237;-89
2022/06/24 08:31:47;;;;;;;9.10;3.53;;;;;;;27.42;73.48;97481.63;4119370;28;20632;-88
2022/06/24 08:33:51;;;;;;;6.50;3.53;;;;;;;27.71;72.36;97478.22;4120568;28;20643;-88
2022/06/24 08:35:54;;;;;;;4.60;3.27;;;;;;;28.31;70.87;97484.22;4136737;28;21309;-88
2022/06/24 08:37:58;;;;;;;6.60;3.40;;;;;;;28.52;68.92;97480.97;4137591;28;20694;-88
2022/06/24 08:40:02;;;;;;;7.57;3.90;;;;;;;28.82;68.52;97484.41;4150938;28;20634;-88
2022/06/24 08:42:06;;;;;;;6.27;3.47;;;;;;;28.97;65.34;97480.19;4124135;28;20624;-88
2022/06/24 08:44:09;;;;;;;7.67;3.40;;;;;;;28.86;65.30;97469.47;4142437;28;21316;-89
2022/06/24 08:46:13;;;;;;;7.40;3.77;;;;;;;29.20;67.75;97481.03;4115718;28;21254;-89
2022/06/24 08:48:18;;;;;;;8.20;3.73;;;;;;;29.59;68.39;97467.66;4114182;28;20688;-88
2022/06/24 08:50:22;;;;;;;8.97;3.60;;;;;;;29.81;65.43;97475.91;4114380;28;21301;-89
2022/06/24 08:52:26;;;;;;;7.30;3.57;;;;;;;29.95;65.73;97468.13;4129609;28;20630;-88
2022/06/24 08:54:31;;;;;;;5.07;3.00;;;;;;;29.85;62.44;97460.94;4122382;28;20684;-89
2022/06/24 08:56:35;;;;;;;6.57;3.10;;;;;;;29.90;66.73;97467.19;4119848;28;20631;-88
2022/06/24 08:58:39;;;;;;;8.40;4.30;;;;;;;30.06;63.84;97471.81;4120604;28;20632;-88
2022/06/24 09:00:47;;;;;;;7.83;3.63;;;;;;;30.11;64.18;97464.63;4133670;28;20684;-88
2022/06/24 09:03:09;;;;;;;4.13;3.23;;;;;;;30.05;61.86;97460.22;4139509;28;20640;-88
2022/06/24 09:05:15;;;;;;;9.70;4.10;;;;;;;29.80;63.24;97453.56;4135350;28;20643;-88
2022/06/24 09:07:24;;;;;;;5.93;3.47;;;;;;;29.70;65.28;97452.53;4134213;28;20686;-88
2022/06/24 09:09:28;;;;;;;9.67;3.57;;;;;;;29.64;64.16;97456.16;4143889;28;20642;-89
2022/06/24 09:11:36;;;;;;;4.90;3.57;;;;;;;29.95;67.39;97448.47;4120059;28;21239;-89
2022/06/24 09:13:44;;;;;;;6.10;3.40;;;;;;;29.89;62.92;97435.16;4127628;28;20653;-88
2022/06/24 09:15:52;;;;;;;5.50;3.53;;;;;;;29.88;64.84;97444.31;4140957;28;20635;-88
2022/06/24 09:17:55;;;;;;;5.27;2.90;;;;;;;29.55;62.62;97444.16;4141114;28;20639;-89
2022/06/24 09:20:09;;;;;;;5.53;3.03;;;;;;;29.33;64.99;97443.13;4125230;28;20734;-88
2022/06/24 09:22:34;;;;;;;10.00;3.77;;;;;;;29.42;64.99;97433.66;4123052;28;20768;-87
2022/06/24 09:24:47;;;;;;;6.23;3.13;;;;;;;29.41;61.70;97434.72;4137890;28;20718;-87
2022/06/24 09:27:00;;;;;;;8.37;3.50;;;;;;;29.15;64.17;97437.91;4123555;28;20759;-87
2022/06/24 09:29:05;;;;;;;4.67;3.20;;;;;;;28.96;65.75;97442.81;4125677;28;20627;-87
2022/06/24 09:31:11;;;;;;;4.00;3.10;;;;;;;28.76;64.89;97442.38;4140238;28;20646;-88
2022/06/24 09:33:16;;;;;;;6.07;3.40;;;;;;;28.63;65.74;97442.59;4144561;28;21217;-87
2022/06/24 09:35:36;;;;;;;6.20;3.70;;;;;;;28.66;66.19;97439.44;4133945;28;20706;-88
2022/06/24 09:37:45;;;;;;;4.97;3.63;;;;;;;28.55;66.18;97430.31;4132077;28;20640;-87
2022/06/24 09:39:49;;;;;;;6.20;3.70;;;;;;;28.44;69.75;97443.72;4135994;28;20679;-87
2022/06/24 09:41:54;;;;;;;8.70;3.93;;;;;;;28.54;67.04;97438.59;4138912;28;20645;-88
2022/06/24 09:43:58;;;;;;;6.90;3.50;;;;;;;28.69;67.40;97431.75;4136001;28;21235;-88
2022/06/24 09:46:02;;;;;;;5.80;3.70;;;;;;;28.88;67.13;97441.31;4131320;28;20701;-88
2022/06/24 09:48:06;;;;;;;5.17;3.40;;;;;;;29.12;65.15;97429.47;4123710;28;21218;-88
2022/06/24 09:50:09;;;;;;;9.87;3.87;;;;;;;29.15;66.72;97427.16;4126192;28;20625;-88
2022/06/24 09:52:13;;;;;;;8.63;3.53;;;;;;;29.37;64.81;97425.50;4123395;28;20680;-87
2022/06/24 09:54:18;;;;;;;6.80;3.57;;;;;;;29.40;64.95;97426.91;4144773;28;20651;-88
2022/06/24 09:56:22;;;;;;;7.97;4.57;;;;;;;29.51;66.02;97424.16;4122512;28;20644;-88